createdAt,value
2018-11-02T00:02:16.578Z,11.90
2018-11-02T00:04:45.627Z,12.73
2018-11-02T00:07:14.674Z,13.40
2018-11-02T00:09:43.725Z,14.53
2018-11-02T00:14:47.977Z,15.02
2018-11-02T00:17:17.026Z,14.33
2018-11-02T00:19:46.086Z,17.65
2018-11-02T00:22:15.148Z,14.97
2018-11-02T00:24:44.210Z,14.90
2018-11-02T00:27:13.248Z,12.80
2018-11-02T00:29:42.302Z,12.50
2018-11-02T00:32:11.598Z,13.50
2018-11-02T00:37:17.377Z,15.13
2018-11-02T00:39:46.416Z,13.60
2018-11-02T00:42:15.483Z,13.93
2018-11-02T00:44:44.528Z,15.33
2018-11-02T00:49:49.272Z,16.45
2018-11-02T00:52:18.351Z,13.13
2018-11-02T00:54:47.369Z,13.57
2018-11-02T00:59:52.610Z,16.35
2018-11-02T01:02:21.670Z,15.40
2018-11-02T01:07:26.477Z,16.73
2018-11-02T01:12:31.229Z,15.55
2018-11-02T01:17:35.993Z,16.95
2018-11-02T01:20:05.045Z,19.20
2018-11-02T01:22:34.085Z,15.63
2018-11-02T01:25:03.314Z,13.03
2018-11-02T01:27:32.383Z,12.13
2018-11-02T01:32:37.138Z,15.35
2018-11-02T01:35:06.190Z,16.50
2018-11-02T01:37:35.259Z,16.00
2018-11-02T01:42:40.082Z,15.88
2018-11-02T01:45:10.082Z,14.03
2018-11-02T01:47:39.137Z,15.50
2018-11-02T01:50:08.184Z,13.03
2018-11-02T01:52:37.378Z,12.33
2018-11-02T01:55:06.432Z,12.57
2018-11-02T02:00:11.238Z,14.77
2018-11-02T02:02:41.202Z,12.47
2018-11-02T02:07:46.065Z,15.82
2018-11-02T02:10:15.126Z,13.27
2018-11-02T02:12:44.175Z,13.70
2018-11-02T02:15:13.217Z,15.52
2018-11-02T02:17:42.280Z,14.47
2018-11-02T02:20:11.332Z,12.50
2018-11-02T02:22:40.413Z,12.43
2018-11-02T02:25:09.456Z,14.87
2018-11-02T02:27:38.523Z,16.98
2018-11-02T02:30:08.575Z,13.67
2018-11-02T02:32:37.627Z,15.85
2018-11-02T02:37:42.375Z,15.38
2018-11-02T02:40:11.440Z,14.20
2018-11-02T02:42:40.469Z,13.10
2018-11-02T02:45:09.639Z,13.33
2018-11-02T02:47:38.671Z,12.70
2018-11-02T02:50:08.640Z,13.40
2018-11-02T02:55:13.481Z,16.05
2018-11-02T02:57:43.532Z,12.73
2018-11-02T03:00:12.582Z,12.70
2018-11-02T03:02:42.627Z,11.57
2018-11-02T03:05:11.683Z,12.63
2018-11-02T03:07:40.752Z,12.17
2018-11-02T03:14:09.395Z,13.60
2018-11-02T03:19:14.281Z,16.80
2018-11-02T03:21:43.328Z,17.80
2018-11-02T03:26:48.137Z,16.15
2018-11-02T03:29:17.224Z,14.30
2018-11-02T03:31:46.296Z,13.93
2018-11-02T03:34:15.395Z,10.90
2018-11-02T03:36:44.428Z,9.93
2018-11-02T03:39:13.674Z,9.50
2018-11-02T03:41:42.693Z,9.90
2018-11-02T03:44:11.753Z,12.13
2018-11-02T03:46:40.795Z,11.63
2018-11-02T03:49:09.842Z,12.68
2018-11-02T03:51:38.889Z,13.50
2018-11-02T03:54:07.942Z,12.17
2018-11-02T03:59:12.701Z,13.82
2018-11-02T04:01:41.739Z,12.77
2018-11-02T04:04:10.792Z,12.13
2018-11-02T04:09:15.773Z,13.90
2018-11-02T04:11:46.818Z,12.37
2018-11-02T04:16:51.626Z,14.40
2018-11-02T04:19:20.684Z,15.52
2018-11-02T04:21:49.728Z,16.60
2018-11-02T04:26:55.463Z,14.75
2018-11-02T04:29:24.506Z,13.60
2018-11-02T04:31:53.569Z,13.37
2018-11-02T04:34:22.597Z,13.03
2018-11-02T04:36:51.645Z,12.83
2018-11-02T04:39:20.696Z,12.57
2018-11-02T04:44:25.444Z,12.60
2018-11-02T04:46:54.490Z,13.68
2018-11-02T04:51:59.277Z,14.50
2018-11-02T04:54:29.249Z,12.37
2018-11-02T04:59:34.056Z,13.13
2018-11-02T05:02:03.138Z,13.95
2018-11-02T05:04:32.185Z,12.60
2018-11-02T05:07:01.229Z,11.00
2018-11-02T05:09:30.446Z,12.20
2018-11-02T05:11:59.501Z,11.30
2018-11-02T05:17:05.340Z,13.32
2018-11-02T05:19:34.528Z,14.37
2018-11-02T05:22:03.587Z,12.13
2018-11-02T05:24:32.646Z,13.63
2018-11-02T05:27:01.692Z,15.53
2018-11-02T05:29:30.740Z,12.47
2018-11-02T05:31:59.783Z,12.43
2018-11-02T05:34:28.862Z,15.60
2018-11-02T05:39:33.636Z,15.30
2018-11-02T05:42:02.629Z,14.37
2018-11-02T05:44:39.747Z,12.80
2018-11-02T05:47:12.862Z,12.80
2018-11-02T05:49:42.921Z,12.57
2018-11-02T05:52:11.977Z,12.80
2018-11-02T05:57:16.810Z,15.45
2018-11-02T05:59:45.946Z,12.70
2018-11-02T06:02:14.992Z,10.80
2018-11-02T06:04:45.101Z,10.77
2018-11-02T06:07:14.145Z,11.13
2018-11-02T06:12:18.885Z,13.15
2018-11-02T06:14:47.944Z,12.10
2018-11-02T06:17:17.984Z,12.03
2018-11-02T06:19:47.043Z,10.50
2018-11-02T06:22:16.088Z,12.67
2018-11-02T06:24:46.078Z,13.70
2018-11-02T06:27:15.121Z,15.37
2018-11-02T06:29:44.191Z,15.27
2018-11-02T06:32:13.249Z,13.83
2018-11-02T06:34:42.295Z,14.37
2018-11-02T06:37:11.352Z,18.70
2018-11-02T06:39:40.390Z,14.53
2018-11-02T06:42:09.599Z,12.10
2018-11-02T06:44:38.750Z,11.60
2018-11-02T06:47:07.779Z,10.80
2018-11-02T06:52:12.590Z,12.45
2018-11-02T06:57:18.181Z,12.02
2018-11-02T06:59:48.498Z,10.40
2018-11-02T07:02:17.341Z,10.07
2018-11-02T07:04:46.853Z,11.82
2018-11-02T07:07:15.990Z,10.10
2018-11-02T07:09:44.969Z,10.87
2018-11-02T07:12:15.898Z,15.87
2018-11-02T07:14:44.967Z,15.50
2018-11-02T07:17:14.095Z,14.83
2018-11-02T07:19:44.091Z,10.17
2018-11-02T07:22:16.901Z,11.03
2018-11-02T07:24:46.885Z,10.60
2018-11-02T07:27:15.934Z,11.03
2018-11-02T07:29:45.003Z,11.97
2018-11-02T07:32:14.034Z,11.10
2018-11-02T07:37:20.279Z,13.02
2018-11-02T07:39:49.477Z,11.43
2018-11-02T07:42:20.514Z,10.37
2018-11-02T07:44:49.553Z,9.73
2018-11-02T07:47:19.040Z,10.30
2018-11-02T07:49:48.053Z,10.57
2018-11-02T07:52:17.121Z,11.23
2018-11-02T07:54:46.181Z,9.80
2018-11-02T07:57:16.232Z,9.60
2018-11-02T07:59:45.295Z,10.30
2018-11-02T08:02:16.844Z,9.73
2018-11-02T08:04:46.906Z,9.23
2018-11-02T08:07:15.944Z,9.77
2018-11-02T08:09:44.995Z,10.50
2018-11-02T08:12:14.030Z,10.33
2018-11-02T08:14:43.091Z,10.25
2018-11-02T08:19:47.956Z,11.30
2018-11-02T08:22:17.028Z,10.00
2018-11-02T08:24:48.007Z,10.00
2018-11-02T08:27:17.025Z,9.57
2018-11-02T08:29:46.121Z,9.80
2018-11-02T08:32:16.308Z,9.80
2018-11-02T08:34:46.225Z,9.50
2018-11-02T08:37:15.269Z,8.33
2018-11-02T08:39:44.334Z,9.67
2018-11-02T08:42:15.388Z,8.40
2018-11-02T08:44:44.449Z,8.87
2018-11-02T08:47:14.401Z,13.53
2018-11-02T08:49:43.463Z,10.03
2018-11-02T08:52:12.673Z,9.13
2018-11-02T08:54:41.663Z,10.43
2018-11-02T08:57:10.741Z,10.53
2018-11-02T08:59:39.920Z,10.73
2018-11-02T09:02:08.966Z,10.77
2018-11-02T09:04:38.009Z,10.37
2018-11-02T09:07:07.134Z,10.20
2018-11-02T09:14:47.634Z,9.73
2018-11-02T09:17:16.702Z,10.00
2018-11-02T09:19:51.169Z,10.37
2018-11-02T09:22:21.229Z,9.57
2018-11-02T09:24:54.622Z,9.87
2018-11-02T09:27:24.166Z,8.57
2018-11-02T09:29:54.057Z,9.40
2018-11-02T09:32:23.127Z,9.63
2018-11-02T09:34:52.157Z,9.67
2018-11-02T09:37:21.212Z,10.40
2018-11-02T09:39:50.318Z,9.60
2018-11-02T09:42:22.469Z,11.80
2018-11-02T09:44:51.516Z,11.20
2018-11-02T09:47:20.584Z,10.77
2018-11-02T09:49:49.648Z,10.70
2018-11-02T09:52:18.868Z,9.77
2018-11-02T09:59:59.376Z,10.43
2018-11-02T10:02:28.427Z,10.37
2018-11-02T10:04:57.478Z,11.57
2018-11-02T10:07:26.532Z,11.10
2018-11-02T10:09:55.804Z,10.57
2018-11-02T10:12:25.850Z,10.93
2018-11-02T10:14:54.938Z,10.10
2018-11-02T10:17:24.979Z,12.57
2018-11-02T10:19:54.062Z,10.90
2018-11-02T10:22:23.113Z,11.93
2018-11-02T10:24:52.345Z,11.27
2018-11-02T10:27:21.398Z,11.57
2018-11-02T10:29:51.573Z,11.67
2018-11-02T10:32:20.643Z,12.50
2018-11-02T10:37:25.428Z,13.10
2018-11-02T10:39:54.483Z,12.63
2018-11-02T10:42:23.549Z,11.33
2018-11-02T10:44:52.613Z,12.73
2018-11-02T10:47:22.572Z,12.60
2018-11-02T10:49:53.298Z,11.83
2018-11-02T10:52:22.379Z,10.00
2018-11-02T10:54:51.467Z,11.33
2018-11-02T10:57:20.519Z,12.85
2018-11-02T10:59:49.581Z,13.73
2018-11-02T11:02:18.630Z,12.70
2018-11-02T11:04:47.720Z,12.43
2018-11-02T11:07:18.826Z,12.57
2018-11-02T11:09:47.862Z,13.53
2018-11-02T11:14:52.706Z,14.70
2018-11-02T11:17:21.750Z,13.47
2018-11-02T11:19:50.842Z,13.30
2018-11-02T11:22:25.674Z,14.60
2018-11-02T11:24:54.804Z,13.70
2018-11-02T11:27:23.879Z,13.43
2018-11-02T11:29:52.979Z,13.33
2018-11-02T11:32:22.051Z,13.37
2018-11-02T11:34:51.128Z,15.43
2018-11-02T11:37:20.186Z,14.73
2018-11-02T11:39:49.259Z,13.93
2018-11-02T11:42:18.295Z,17.27
2018-11-02T11:44:47.362Z,15.17
2018-11-02T11:47:17.326Z,16.47
2018-11-02T11:49:46.390Z,17.40
2018-11-02T11:52:15.471Z,15.57
2018-11-02T11:54:46.469Z,15.53
2018-11-02T11:57:15.525Z,15.03
2018-11-02T11:59:46.541Z,15.20
2018-11-02T12:02:17.661Z,18.57
2018-11-02T12:04:50.443Z,18.27
2018-11-02T12:07:19.600Z,18.77
2018-11-02T12:09:48.825Z,16.40
2018-11-02T12:12:17.874Z,17.17
2018-11-02T12:14:47.825Z,17.85
2018-11-02T12:17:16.885Z,17.07
2018-11-02T12:19:45.964Z,19.33
2018-11-02T12:22:15.066Z,17.13
2018-11-02T12:24:45.095Z,17.67
2018-11-02T12:27:14.139Z,17.47
2018-11-02T12:29:43.253Z,18.50
2018-11-02T12:32:12.321Z,16.90
2018-11-02T12:34:41.412Z,17.87
2018-11-02T12:37:10.555Z,16.73
2018-11-02T12:39:39.558Z,18.40
2018-11-02T12:42:08.607Z,19.63
2018-11-02T12:44:37.684Z,20.00
2018-11-02T12:47:06.729Z,19.70
2018-11-02T12:49:36.109Z,18.90
2018-11-02T12:52:04.859Z,19.95
2018-11-02T12:54:33.929Z,18.27
2018-11-02T12:57:02.990Z,17.67
2018-11-02T12:59:32.031Z,18.63
2018-11-02T13:02:01.085Z,18.30
2018-11-02T13:04:30.366Z,20.40
2018-11-02T13:06:59.406Z,19.83
2018-11-02T13:12:05.155Z,20.83
2018-11-02T13:14:34.205Z,18.50
2018-11-02T13:17:03.256Z,18.50
2018-11-02T13:19:32.314Z,20.90
2018-11-02T13:24:37.180Z,20.80
2018-11-02T13:27:06.341Z,20.40
2018-11-02T13:32:13.145Z,20.73
2018-11-02T13:34:42.209Z,19.73
2018-11-02T13:37:11.378Z,20.23
2018-11-02T13:42:16.088Z,21.53
2018-11-02T13:44:46.057Z,19.80
2018-11-02T13:47:15.121Z,20.00
2018-11-02T13:49:44.406Z,18.73
2018-11-02T13:52:13.502Z,21.55
2018-11-02T13:54:43.596Z,19.33
2018-11-02T13:57:12.639Z,19.50
2018-11-02T13:59:41.694Z,19.57
2018-11-02T14:02:10.753Z,21.85
2018-11-02T14:04:39.820Z,19.03
2018-11-02T14:07:09.790Z,17.67
2018-11-02T14:09:39.094Z,20.50
2018-11-02T14:12:08.202Z,18.20
2018-11-02T14:14:37.265Z,19.07
2018-11-02T14:17:06.338Z,18.43
2018-11-02T14:19:36.333Z,18.77
2018-11-02T14:22:05.388Z,19.83
2018-11-02T14:24:34.441Z,17.70
2018-11-02T14:27:03.489Z,20.52
2018-11-02T14:29:33.580Z,19.23
2018-11-02T14:32:06.721Z,21.67
2018-11-02T14:34:35.785Z,21.30
2018-11-02T14:37:04.842Z,19.83
2018-11-02T14:39:33.927Z,23.95
2018-11-02T14:42:03.067Z,21.47
2018-11-02T14:44:33.095Z,19.63
2018-11-02T14:47:02.099Z,20.43
2018-11-02T14:49:33.098Z,19.27
2018-11-02T14:52:02.144Z,20.33
2018-11-02T14:54:39.482Z,18.93
2018-11-02T14:57:08.531Z,18.43
2018-11-02T14:59:37.601Z,18.37
2018-11-02T15:02:06.698Z,19.58
2018-11-02T15:04:35.837Z,18.87
2018-11-02T15:07:04.881Z,18.13
2018-11-02T15:09:33.937Z,19.90
2018-11-02T15:12:03.015Z,18.43
2018-11-02T15:14:32.082Z,20.58
2018-11-02T15:17:01.131Z,20.03
2018-11-02T15:19:32.110Z,21.63
2018-11-02T15:22:11.058Z,19.97
2018-11-02T15:24:40.093Z,20.43
2018-11-02T15:27:09.176Z,21.20
2018-11-02T15:29:38.247Z,20.30
2018-11-02T15:32:07.291Z,19.70
2018-11-02T15:34:36.379Z,22.80
2018-11-02T15:37:05.399Z,25.92
2018-11-02T15:39:34.525Z,22.17
2018-11-02T15:42:03.577Z,25.20
2018-11-02T15:44:32.682Z,24.23
2018-11-02T15:47:01.701Z,22.30
2018-11-02T15:49:30.756Z,21.07
2018-11-02T15:51:59.941Z,23.67
2018-11-02T15:54:29.040Z,22.37
2018-11-02T15:56:58.257Z,21.13
2018-11-02T15:59:27.269Z,21.70
2018-11-02T16:02:03.557Z,20.30
2018-11-02T16:04:34.538Z,21.23
2018-11-02T16:07:04.727Z,18.13
2018-11-02T16:09:33.607Z,20.97
2018-11-02T16:12:04.548Z,22.53
2018-11-02T16:14:33.658Z,22.00
2018-11-02T16:17:02.666Z,24.33
2018-11-02T16:19:31.698Z,24.30
2018-11-02T16:22:00.758Z,34.00
2018-11-02T16:24:29.809Z,29.07
2018-11-02T16:26:59.849Z,33.92
2018-11-02T16:29:28.913Z,29.23
2018-11-02T16:31:57.978Z,27.50
2018-11-02T16:34:27.021Z,28.20
2018-11-02T16:36:56.071Z,28.30
2018-11-02T16:39:25.173Z,30.20
2018-11-02T16:44:35.521Z,40.85
2018-11-02T16:47:04.533Z,34.47
2018-11-02T16:52:09.268Z,43.35
2018-11-02T16:54:38.353Z,34.07
2018-11-02T16:57:07.389Z,33.13
2018-11-02T16:59:36.540Z,32.47
2018-11-02T17:02:05.670Z,33.83
2018-11-02T17:04:34.809Z,33.07
2018-11-02T17:07:03.898Z,33.53
2018-11-02T17:09:32.957Z,36.40
2018-11-02T17:12:02.019Z,37.23
2018-11-02T17:14:31.077Z,39.13
2018-11-02T17:19:35.847Z,46.17
2018-11-02T17:22:04.906Z,39.73
2018-11-02T17:24:33.970Z,38.30
2018-11-02T17:27:04.091Z,45.93
2018-11-02T17:29:33.168Z,39.20
2018-11-02T17:32:02.199Z,41.20
2018-11-02T17:34:31.256Z,38.13
2018-11-02T17:37:00.411Z,34.70
2018-11-02T17:39:29.542Z,42.75
2018-11-02T17:41:58.857Z,41.03
2018-11-02T17:44:28.003Z,34.47
2018-11-02T17:46:57.045Z,30.23
2018-11-02T17:52:01.793Z,40.83
2018-11-02T17:57:09.644Z,40.58
2018-11-02T17:59:38.942Z,34.53
2018-11-02T18:02:07.813Z,33.77
2018-11-02T18:07:12.623Z,39.67
2018-11-02T18:09:42.726Z,33.40
2018-11-02T18:14:47.645Z,38.20
2018-11-02T18:17:16.697Z,46.15
2018-11-02T18:19:45.749Z,39.73
2018-11-02T18:22:14.839Z,33.67
2018-11-02T18:24:45.846Z,37.50
2018-11-02T18:27:14.880Z,39.53
2018-11-02T18:32:19.629Z,40.47
2018-11-02T18:37:24.382Z,38.10
2018-11-02T18:39:54.501Z,42.40
2018-11-02T18:42:23.937Z,34.00
2018-11-02T18:44:52.941Z,37.07
2018-11-02T18:49:57.756Z,40.17
2018-11-02T18:55:02.501Z,45.60
2018-11-02T18:57:31.557Z,37.93
2018-11-02T19:00:00.611Z,36.23
2018-11-02T19:02:29.656Z,39.90
2018-11-02T19:04:58.710Z,41.50
2018-11-02T19:10:04.444Z,48.10
2018-11-02T19:12:33.526Z,44.63
2018-11-02T19:15:02.653Z,38.30
2018-11-02T19:17:31.755Z,35.53
2018-11-02T19:20:01.940Z,33.73
2018-11-02T19:22:30.829Z,39.20
2018-11-02T19:27:35.716Z,56.90
2018-11-02T19:32:40.394Z,55.72
2018-11-02T19:37:45.204Z,51.40
2018-11-02T19:40:14.190Z,51.95
2018-11-02T19:42:44.236Z,48.53
2018-11-02T19:45:13.312Z,48.20
2018-11-02T19:47:42.368Z,50.50
2018-11-02T19:50:11.413Z,36.87
2018-11-02T19:52:40.469Z,35.07
2018-11-02T19:55:09.599Z,35.63
2018-11-02T19:57:38.612Z,51.28
2018-11-02T20:00:07.679Z,44.27
2018-11-02T20:02:36.732Z,40.27
2018-11-02T20:05:06.838Z,34.50
2018-11-02T20:07:37.255Z,34.27
2018-11-02T20:10:06.325Z,34.37
2018-11-02T20:12:35.374Z,35.23
2018-11-02T20:15:04.414Z,34.80
2018-11-02T20:20:09.161Z,54.42
2018-11-02T20:22:39.120Z,59.47
2018-11-02T20:25:08.279Z,74.85
2018-11-02T20:30:13.019Z,48.87
2018-11-02T20:32:42.087Z,44.80
2018-11-02T20:35:11.121Z,38.50
2018-11-02T20:40:17.809Z,53.05
2018-11-02T20:42:46.915Z,39.80
2018-11-02T20:47:52.646Z,53.90
2018-11-02T20:50:21.772Z,44.63
2018-11-02T20:52:51.138Z,45.67
2018-11-02T20:55:20.361Z,46.70
2018-11-02T20:57:49.403Z,45.37
2018-11-02T21:02:55.210Z,55.72
2018-11-02T21:05:24.239Z,46.80
2018-11-02T21:07:53.234Z,43.03
2018-11-02T21:10:22.298Z,43.40
2018-11-02T21:15:27.108Z,51.63
2018-11-02T21:17:56.157Z,59.20
2018-11-02T21:20:25.248Z,49.10
2018-11-02T21:22:54.311Z,43.20
2018-11-02T21:25:23.389Z,55.72
2018-11-02T21:27:52.421Z,43.47
2018-11-02T21:30:21.478Z,42.23
2018-11-02T21:32:50.543Z,37.80
2018-11-02T21:35:19.588Z,38.60
2018-11-02T21:37:49.660Z,35.97
2018-11-02T21:42:54.366Z,38.83
2018-11-02T21:45:23.405Z,42.75
2018-11-02T21:53:03.985Z,48.20
2018-11-02T21:55:33.033Z,35.60
2018-11-02T21:58:02.088Z,34.10
2018-11-02T22:00:31.134Z,32.33
2018-11-02T22:03:00.222Z,41.55
2018-11-02T22:05:29.351Z,35.90
2018-11-02T22:07:58.401Z,32.27
2018-11-02T22:15:38.995Z,44.25
2018-11-02T22:18:08.032Z,35.97
2018-11-02T22:20:37.094Z,36.00
2018-11-02T22:23:06.133Z,34.50
2018-11-02T22:25:35.188Z,41.88
2018-11-02T22:28:04.234Z,35.70
2018-11-02T22:30:33.265Z,32.37
2018-11-02T22:33:03.229Z,34.00
2018-11-02T22:35:32.308Z,33.30
2018-11-02T22:38:02.442Z,31.17
2018-11-02T22:45:43.003Z,45.90
2018-11-02T22:50:47.819Z,38.40
2018-11-02T22:53:16.874Z,31.10
2018-11-02T22:55:45.925Z,27.83
2018-11-02T22:58:15.007Z,28.83
2018-11-02T23:00:44.075Z,25.83
2018-11-02T23:03:13.109Z,25.33
2018-11-02T23:05:42.272Z,31.17
2018-11-02T23:08:11.290Z,25.43
2018-11-02T23:10:41.403Z,25.47
2018-11-02T23:18:21.977Z,31.48
2018-11-02T23:23:26.215Z,28.20
2018-11-02T23:25:55.270Z,26.47
2018-11-02T23:28:24.309Z,24.57
2018-11-02T23:33:29.066Z,29.83
2018-11-02T23:35:58.115Z,26.70
2018-11-02T23:38:27.169Z,31.25
2018-11-02T23:40:56.245Z,28.13
2018-11-02T23:46:01.111Z,31.48
2018-11-02T23:48:30.314Z,27.00
2018-11-02T23:50:59.381Z,28.98
2018-11-02T23:53:28.450Z,25.90
2018-11-02T23:55:57.513Z,25.27
2018-11-02T23:58:26.564Z,23.53
